createdAt,value
2023-11-20T00:00:14.578Z,45.07
2023-11-20T00:00:48.350Z,44.40
2023-11-20T00:01:24.215Z,47.30
2023-11-20T00:01:57.922Z,46.47
2023-11-20T00:02:31.260Z,44.83
2023-11-20T00:03:07.533Z,46.90
2023-11-20T00:03:43.566Z,46.13
2023-11-20T00:04:17.220Z,46.20
2023-11-20T00:04:51.362Z,45.37
2023-11-20T00:05:25.341Z,44.57
2023-11-20T00:05:58.645Z,45.60
2023-11-20T00:06:32.587Z,44.67
2023-11-20T00:07:06.864Z,46.97
2023-11-20T00:07:43.247Z,46.87
2023-11-20T00:08:16.475Z,47.10
2023-11-20T00:08:50.032Z,45.77
2023-11-20T00:09:26.729Z,43.80
2023-11-20T00:10:01.490Z,43.83
2023-11-20T00:10:40.191Z,45.30
2023-11-20T00:11:17.038Z,43.17
2023-11-20T00:11:50.863Z,43.90
2023-11-20T00:12:25.006Z,43.87
2023-11-20T00:12:58.635Z,45.93
2023-11-20T00:13:32.196Z,45.63
2023-11-20T00:14:05.683Z,45.50
2023-11-20T00:14:39.616Z,44.73
2023-11-20T00:15:14.118Z,44.80
2023-11-20T00:15:47.671Z,44.63
2023-11-20T00:16:21.133Z,44.60
2023-11-20T00:16:55.837Z,44.37
2023-11-20T00:17:29.533Z,45.30
2023-11-20T00:18:05.116Z,44.97
2023-11-20T00:18:39.322Z,44.10
2023-11-20T00:19:13.010Z,44.33
2023-11-20T00:19:46.797Z,44.07
2023-11-20T00:20:20.116Z,44.73
2023-11-20T00:20:53.393Z,46.20
2023-11-20T00:21:27.011Z,46.17
2023-11-20T00:22:01.464Z,44.40
2023-11-20T00:22:35.155Z,45.23
2023-11-20T00:23:08.723Z,45.53
2023-11-20T00:23:42.879Z,43.97
2023-11-20T00:24:16.986Z,46.43
2023-11-20T00:24:50.542Z,47.03
2023-11-20T00:25:24.090Z,46.30
2023-11-20T00:25:57.694Z,45.70
2023-11-20T00:26:30.970Z,43.63
2023-11-20T00:27:10.989Z,45.33
2023-11-20T00:27:44.618Z,46.43
2023-11-20T00:28:18.206Z,43.80
2023-11-20T00:28:54.843Z,43.93
2023-11-20T00:29:28.840Z,46.73
2023-11-20T00:30:02.169Z,46.73
2023-11-20T00:30:35.791Z,45.00
2023-11-20T00:31:19.121Z,45.03
2023-11-20T00:31:52.481Z,45.67
2023-11-20T00:32:27.015Z,44.77
2023-11-20T00:33:01.409Z,45.10
2023-11-20T00:33:35.214Z,43.77
2023-11-20T00:34:09.741Z,45.37
2023-11-20T00:34:43.706Z,46.63
2023-11-20T00:35:17.655Z,46.33
2023-11-20T00:35:52.179Z,45.37
2023-11-20T00:36:25.993Z,44.07
2023-11-20T00:37:00.298Z,45.87
2023-11-20T00:37:33.871Z,46.33
2023-11-20T00:38:09.011Z,46.33
2023-11-20T00:38:43.344Z,45.33
2023-11-20T00:39:16.984Z,46.00
2023-11-20T00:39:50.378Z,44.87
2023-11-20T00:40:23.939Z,44.73
2023-11-20T00:40:58.047Z,45.87
2023-11-20T00:41:32.888Z,45.97
2023-11-20T00:42:08.308Z,46.90
2023-11-20T00:42:42.816Z,45.33
2023-11-20T00:43:17.950Z,45.30
2023-11-20T00:43:51.554Z,44.40
2023-11-20T00:44:24.905Z,44.57
2023-11-20T00:44:58.166Z,46.07
2023-11-20T00:45:31.711Z,45.87
2023-11-20T00:46:09.373Z,44.63
2023-11-20T00:46:43.918Z,46.03
2023-11-20T00:47:17.594Z,46.43
2023-11-20T00:47:51.175Z,45.13
2023-11-20T00:48:24.865Z,44.00
2023-11-20T00:48:58.443Z,44.33
2023-11-20T00:49:34.820Z,46.00
2023-11-20T00:50:09.360Z,44.70
2023-11-20T00:50:43.764Z,45.70
2023-11-20T00:51:17.076Z,44.33
2023-11-20T00:51:50.957Z,44.53
2023-11-20T00:52:25.973Z,44.53
2023-11-20T00:53:00.340Z,44.63
2023-11-20T00:53:36.733Z,43.67
2023-11-20T00:54:10.697Z,44.13
2023-11-20T00:54:44.448Z,43.93
2023-11-20T00:55:18.056Z,44.20
2023-11-20T00:55:52.180Z,44.43
2023-11-20T00:56:25.915Z,44.83
2023-11-20T00:56:59.326Z,43.97
2023-11-20T00:57:36.328Z,45.03
2023-11-20T00:58:09.950Z,44.07
2023-11-20T00:58:44.135Z,44.20
2023-11-20T00:59:17.667Z,45.37
2023-11-20T00:59:51.924Z,45.10
2023-11-20T01:02:09.112Z,44.23
2023-11-20T01:02:44.365Z,44.63
2023-11-20T01:03:18.288Z,44.37
2023-11-20T01:03:52.075Z,43.77
2023-11-20T01:04:26.788Z,44.10
2023-11-20T01:05:00.940Z,44.03
2023-11-20T01:05:34.349Z,42.87
2023-11-20T01:06:10.132Z,44.10
2023-11-20T01:06:44.692Z,42.63
2023-11-20T01:07:18.009Z,44.00
2023-11-20T01:07:52.461Z,44.63
2023-11-20T01:08:25.784Z,43.37
2023-11-20T01:08:59.125Z,44.83
2023-11-20T01:09:32.676Z,45.67
2023-11-20T01:10:08.358Z,47.00
2023-11-20T01:10:44.230Z,46.23
2023-11-20T01:11:19.162Z,44.37
2023-11-20T01:11:52.696Z,43.57
2023-11-20T01:12:26.695Z,43.23
2023-11-20T01:13:00.297Z,43.43
2023-11-20T01:13:33.943Z,44.23
2023-11-20T01:14:10.325Z,44.33
2023-11-20T01:14:46.005Z,43.87
2023-11-20T01:15:19.735Z,44.27
2023-11-20T01:15:56.354Z,43.20
2023-11-20T01:16:29.944Z,43.03
2023-11-20T01:17:04.236Z,42.27
2023-11-20T01:17:38.503Z,43.57
2023-11-20T01:18:13.046Z,42.67
2023-11-20T01:18:46.759Z,43.30
2023-11-20T01:19:20.803Z,43.63
2023-11-20T01:19:54.369Z,43.53
2023-11-20T01:20:28.612Z,42.50
2023-11-20T01:21:02.309Z,45.37
2023-11-20T01:21:38.840Z,43.67
2023-11-20T01:22:12.991Z,42.50
2023-11-20T01:22:46.216Z,43.50
2023-11-20T01:23:22.919Z,43.23
2023-11-20T01:23:56.459Z,43.00
2023-11-20T01:24:30.492Z,42.00
2023-11-20T01:25:04.938Z,43.03
2023-11-20T01:25:41.615Z,43.77
2023-11-20T01:26:16.462Z,42.93
2023-11-20T01:26:50.429Z,41.60
2023-11-20T01:27:23.727Z,44.87
2023-11-20T01:27:57.871Z,43.43
2023-11-20T01:28:31.666Z,43.97
2023-11-20T01:29:05.487Z,44.20
2023-11-20T01:29:38.993Z,44.47
2023-11-20T01:30:13.130Z,42.40
2023-11-20T01:30:46.670Z,43.50
2023-11-20T01:31:20.818Z,44.23
2023-11-20T01:31:54.429Z,43.03
2023-11-20T01:32:27.871Z,43.63
2023-11-20T01:33:01.934Z,43.03
2023-11-20T01:33:35.535Z,42.53
2023-11-20T01:34:09.028Z,42.43
2023-11-20T01:34:42.710Z,41.33
2023-11-20T01:35:17.330Z,43.07
2023-11-20T01:35:50.720Z,42.93
2023-11-20T01:36:24.271Z,43.53
2023-11-20T01:36:57.840Z,41.87
2023-11-20T01:37:34.850Z,43.60
2023-11-20T01:38:08.431Z,43.93
2023-11-20T01:38:41.980Z,43.77
2023-11-20T01:39:15.537Z,44.03
2023-11-20T01:39:51.749Z,41.90
2023-11-20T01:40:25.038Z,42.93
2023-11-20T01:40:58.596Z,43.07
2023-11-20T01:41:33.385Z,43.33
2023-11-20T01:42:08.261Z,43.63
2023-11-20T01:42:41.867Z,45.47
2023-11-20T01:43:15.306Z,44.60
2023-11-20T01:43:49.051Z,46.27
2023-11-20T01:44:22.979Z,43.03
2023-11-20T01:44:56.541Z,43.80
2023-11-20T01:45:31.254Z,44.87
2023-11-20T01:46:10.850Z,43.43
2023-11-20T01:46:44.888Z,43.30
2023-11-20T01:47:19.042Z,41.63
2023-11-20T01:47:52.619Z,41.43
2023-11-20T01:48:26.891Z,43.60
2023-11-20T01:49:05.743Z,44.00
2023-11-20T01:49:42.350Z,45.07
2023-11-20T01:50:16.879Z,42.53
2023-11-20T01:50:51.598Z,42.83
2023-11-20T01:51:27.270Z,42.73
2023-11-20T01:52:05.668Z,45.93
2023-11-20T01:52:47.709Z,44.13
2023-11-20T01:53:21.746Z,43.33
2023-11-20T01:53:57.793Z,43.83
2023-11-20T01:54:32.993Z,43.53
2023-11-20T01:55:10.615Z,44.20
2023-11-20T01:55:44.890Z,43.97
2023-11-20T01:56:18.698Z,42.93
2023-11-20T01:56:53.005Z,42.67
2023-11-20T01:57:27.189Z,43.07
2023-11-20T01:58:01.252Z,43.07
2023-11-20T01:58:37.236Z,43.17
2023-11-20T01:59:17.458Z,42.93
2023-11-20T01:59:51.624Z,44.17
2023-11-20T02:00:27.813Z,45.40
2023-11-20T02:01:02.117Z,43.13
2023-11-20T02:01:35.977Z,42.13
2023-11-20T02:02:10.840Z,42.53
2023-11-20T02:02:46.058Z,42.13
2023-11-20T02:03:20.823Z,43.00
2023-11-20T02:04:00.385Z,42.53
2023-11-20T02:04:39.474Z,42.37
2023-11-20T02:05:13.171Z,41.63
2023-11-20T02:05:47.942Z,43.87
2023-11-20T02:06:22.367Z,44.30
2023-11-20T02:06:55.853Z,43.33
2023-11-20T02:07:29.502Z,43.53
2023-11-20T02:08:04.132Z,43.90
2023-11-20T02:08:37.555Z,43.47
2023-11-20T02:09:11.915Z,43.83
2023-11-20T02:09:46.925Z,44.90
2023-11-20T02:10:21.615Z,43.80
2023-11-20T02:10:56.723Z,42.60
2023-11-20T02:11:30.954Z,42.93
2023-11-20T02:12:07.127Z,43.93
2023-11-20T02:12:42.027Z,42.83
2023-11-20T02:13:16.640Z,43.37
2023-11-20T02:13:52.942Z,44.40
2023-11-20T02:14:27.130Z,43.90
2023-11-20T02:15:00.972Z,43.80
2023-11-20T02:15:35.128Z,42.00
2023-11-20T02:16:09.175Z,43.00
2023-11-20T02:16:43.170Z,43.57
2023-11-20T02:17:16.864Z,43.73
2023-11-20T02:17:50.176Z,43.33
2023-11-20T02:18:35.584Z,43.23
2023-11-20T02:19:16.564Z,42.80
2023-11-20T02:19:50.196Z,43.37
2023-11-20T02:20:26.377Z,43.80
2023-11-20T02:21:06.139Z,42.83
2023-11-20T02:21:40.908Z,43.33
2023-11-20T02:22:14.336Z,43.83
2023-11-20T02:22:47.699Z,43.03
2023-11-20T02:23:21.033Z,43.13
2023-11-20T02:23:54.587Z,44.03
2023-11-20T02:24:28.782Z,44.57
2023-11-20T02:25:02.640Z,43.97
2023-11-20T02:25:36.695Z,43.13
2023-11-20T02:26:33.997Z,43.47
2023-11-20T02:27:37.457Z,43.67
2023-11-20T02:28:41.341Z,42.83
2023-11-20T02:29:26.407Z,44.17
2023-11-20T02:30:05.061Z,43.57
2023-11-20T02:30:39.219Z,42.97
2023-11-20T02:31:12.899Z,43.60
2023-11-20T02:31:48.218Z,43.13
2023-11-20T02:32:22.895Z,43.77
2023-11-20T02:32:56.775Z,45.03
2023-11-20T02:33:35.015Z,44.37
2023-11-20T02:34:10.278Z,43.77
2023-11-20T02:34:44.772Z,42.43
2023-11-20T02:35:19.762Z,42.87
2023-11-20T02:35:53.105Z,43.17
2023-11-20T02:36:26.966Z,42.63
2023-11-20T02:37:00.950Z,42.30
2023-11-20T02:37:35.158Z,43.37
2023-11-20T02:38:08.702Z,42.70
2023-11-20T02:38:42.955Z,43.87
2023-11-20T02:39:16.508Z,43.13
2023-11-20T02:39:51.115Z,41.20
2023-11-20T02:40:24.818Z,42.50
2023-11-20T02:41:00.750Z,42.77
2023-11-20T02:41:34.273Z,42.40
2023-11-20T02:42:10.287Z,41.10
2023-11-20T02:42:48.756Z,41.60
2023-11-20T02:43:22.466Z,43.47
2023-11-20T02:43:56.837Z,42.10
2023-11-20T02:44:30.369Z,42.03
2023-11-20T02:45:04.830Z,43.63
2023-11-20T02:45:38.457Z,42.47
2023-11-20T02:46:12.045Z,43.13
2023-11-20T02:46:46.032Z,42.23
2023-11-20T02:47:20.349Z,44.10
2023-11-20T02:47:53.999Z,42.67
2023-11-20T02:48:30.515Z,44.53
2023-11-20T02:49:04.303Z,42.63
2023-11-20T02:49:37.931Z,42.47
2023-11-20T02:50:11.578Z,43.40
2023-11-20T02:50:45.139Z,43.50
2023-11-20T02:51:19.456Z,42.80
2023-11-20T02:51:52.768Z,42.37
2023-11-20T02:52:26.178Z,42.53
2023-11-20T02:52:59.876Z,44.33
2023-11-20T02:53:33.420Z,43.43
2023-11-20T02:54:07.343Z,43.47
2023-11-20T02:54:40.709Z,42.67
2023-11-20T02:55:14.731Z,44.00
2023-11-20T02:55:50.402Z,42.27
2023-11-20T02:56:26.191Z,42.87
2023-11-20T02:57:00.158Z,43.80
2023-11-20T02:57:34.096Z,44.33
2023-11-20T02:58:07.938Z,42.53
2023-11-20T02:58:41.311Z,45.50
2023-11-20T02:59:14.856Z,43.73
2023-11-20T02:59:51.416Z,44.80
2023-11-20T03:00:27.958Z,43.67
2023-11-20T03:01:01.613Z,45.63
2023-11-20T03:01:35.331Z,46.43
2023-11-20T03:02:09.093Z,45.80
2023-11-20T03:02:42.919Z,47.03
2023-11-20T03:03:16.931Z,43.10
2023-11-20T03:03:50.741Z,45.10
2023-11-20T03:04:25.084Z,45.47
2023-11-20T03:04:58.985Z,45.37
2023-11-20T03:05:32.610Z,44.97
2023-11-20T03:06:07.632Z,44.37
2023-11-20T03:06:41.853Z,45.13
2023-11-20T03:07:16.197Z,44.20
2023-11-20T03:07:49.770Z,45.07
2023-11-20T03:08:24.174Z,45.53
2023-11-20T03:08:57.708Z,45.87
2023-11-20T03:09:31.592Z,43.93
2023-11-20T03:10:06.678Z,44.40
2023-11-20T03:10:43.194Z,46.20
2023-11-20T03:11:16.535Z,46.30
2023-11-20T03:11:49.851Z,46.40
2023-11-20T03:12:23.418Z,45.30
2023-11-20T03:12:57.973Z,44.53
2023-11-20T03:13:31.603Z,44.20
2023-11-20T03:14:05.305Z,45.13
2023-11-20T03:14:39.190Z,45.37
2023-11-20T03:15:13.739Z,45.50
2023-11-20T03:15:48.152Z,44.13
2023-11-20T03:16:22.356Z,44.60
2023-11-20T03:16:55.840Z,45.00
2023-11-20T03:17:29.348Z,45.53
2023-11-20T03:18:06.013Z,44.20
2023-11-20T03:18:40.339Z,45.27
2023-11-20T03:19:15.559Z,45.17
2023-11-20T03:19:49.800Z,44.53
2023-11-20T03:20:23.409Z,45.43
2023-11-20T03:20:57.069Z,45.20
2023-11-20T03:21:30.681Z,45.80
2023-11-20T03:22:04.206Z,45.50
2023-11-20T03:22:38.408Z,45.27
2023-11-20T03:23:14.364Z,45.03
2023-11-20T03:23:50.555Z,46.03
2023-11-20T03:24:26.882Z,47.00
2023-11-20T03:25:01.214Z,46.30
2023-11-20T03:25:36.422Z,46.23
2023-11-20T03:26:09.920Z,45.67
2023-11-20T03:26:43.471Z,45.47
2023-11-20T03:27:16.853Z,44.57
2023-11-20T03:27:55.034Z,45.27
2023-11-20T03:28:28.378Z,43.87
2023-11-20T03:29:03.502Z,44.03
2023-11-20T03:29:38.149Z,46.20
2023-11-20T03:30:11.798Z,45.40
2023-11-20T03:30:45.136Z,46.07
2023-11-20T03:31:19.530Z,45.13
2023-11-20T03:31:53.179Z,44.23
2023-11-20T03:32:27.004Z,46.83
2023-11-20T03:33:01.957Z,45.83
2023-11-20T03:33:35.262Z,43.23
2023-11-20T03:34:08.913Z,45.13
2023-11-20T03:34:42.470Z,44.57
2023-11-20T03:35:16.035Z,45.23
2023-11-20T03:35:53.353Z,43.70
2023-11-20T03:36:32.456Z,44.70
2023-11-20T03:37:06.419Z,44.87
2023-11-20T03:37:39.735Z,44.80
2023-11-20T03:38:13.491Z,44.47
2023-11-20T03:38:47.106Z,42.00
2023-11-20T03:39:20.626Z,43.10
2023-11-20T03:39:54.182Z,43.33
2023-11-20T03:40:27.864Z,43.13
2023-11-20T03:41:01.436Z,44.53
2023-11-20T03:41:35.205Z,43.37
2023-11-20T03:42:09.497Z,44.13
2023-11-20T03:42:42.817Z,44.20
2023-11-20T03:43:16.438Z,43.03
2023-11-20T03:43:51.423Z,44.87
2023-11-20T03:44:25.003Z,43.60
2023-11-20T03:45:00.333Z,43.60
2023-11-20T03:45:33.702Z,42.57
2023-11-20T03:46:07.316Z,42.57
2023-11-20T03:46:40.684Z,42.97
2023-11-20T03:47:14.245Z,43.87
2023-11-20T03:47:47.824Z,44.00
2023-11-20T03:48:22.394Z,42.77
2023-11-20T03:48:56.773Z,44.03
2023-11-20T03:49:30.312Z,45.27
2023-11-20T03:50:05.994Z,44.77
2023-11-20T03:50:39.779Z,43.77
2023-11-20T03:51:16.125Z,44.77
2023-11-20T03:51:51.149Z,43.60
2023-11-20T03:52:24.667Z,43.40
2023-11-20T03:52:57.962Z,43.50
2023-11-20T03:53:32.593Z,44.17
2023-11-20T03:54:06.347Z,44.90
2023-11-20T03:54:41.381Z,43.93
2023-11-20T03:55:17.604Z,41.97
2023-11-20T03:55:51.645Z,41.90
2023-11-20T03:56:25.217Z,44.47
2023-11-20T03:56:58.725Z,42.87
2023-11-20T03:57:35.091Z,42.97
2023-11-20T03:58:08.980Z,44.53
2023-11-20T03:58:45.374Z,43.57
2023-11-20T03:59:18.922Z,43.23
2023-11-20T03:59:53.536Z,42.60
2023-11-20T04:00:27.198Z,43.90
2023-11-20T04:01:01.918Z,46.00
2023-11-20T04:01:35.591Z,42.97
2023-11-20T04:02:09.053Z,45.20
2023-11-20T04:02:43.017Z,43.93
2023-11-20T04:03:16.642Z,44.00
2023-11-20T04:03:50.628Z,42.27
2023-11-20T04:04:24.983Z,44.57
2023-11-20T04:04:58.281Z,43.23
2023-11-20T04:05:31.674Z,43.13
2023-11-20T04:06:05.803Z,42.07
2023-11-20T04:06:41.214Z,42.50
2023-11-20T04:07:15.949Z,42.70
2023-11-20T04:07:50.330Z,43.57
2023-11-20T04:08:23.826Z,42.80
2023-11-20T04:08:57.127Z,43.93
2023-11-20T04:09:30.463Z,44.40
2023-11-20T04:10:06.118Z,44.87
2023-11-20T04:10:39.744Z,42.67
2023-11-20T04:11:13.311Z,43.57
2023-11-20T04:11:46.806Z,44.23
2023-11-20T04:12:23.676Z,43.80
2023-11-20T04:12:57.739Z,41.93
2023-11-20T04:13:31.935Z,41.83
2023-11-20T04:14:06.212Z,41.30
2023-11-20T04:14:39.565Z,42.43
2023-11-20T04:15:13.284Z,41.83
2023-11-20T04:15:46.692Z,43.07
2023-11-20T04:16:20.201Z,44.87
2023-11-20T04:16:53.922Z,43.43
2023-11-20T04:17:27.993Z,42.43
2023-11-20T04:18:02.912Z,41.67
2023-11-20T04:18:39.826Z,42.07
2023-11-20T04:19:14.848Z,43.63
2023-11-20T04:19:48.927Z,43.63
2023-11-20T04:20:23.666Z,41.83
2023-11-20T04:20:58.348Z,42.27
2023-11-20T04:21:33.220Z,43.83
2023-11-20T04:22:08.681Z,42.67
2023-11-20T04:22:42.378Z,42.27
2023-11-20T04:23:16.553Z,44.33
2023-11-20T04:23:49.797Z,42.97
2023-11-20T04:24:24.267Z,42.40
2023-11-20T04:24:57.914Z,42.93
2023-11-20T04:25:31.380Z,41.63
2023-11-20T04:26:05.444Z,43.73
2023-11-20T04:26:38.758Z,44.47
2023-11-20T04:27:12.228Z,43.83
2023-11-20T04:27:45.792Z,43.47
2023-11-20T04:28:19.259Z,42.67
2023-11-20T04:28:53.568Z,41.87
2023-11-20T04:29:27.269Z,42.50
2023-11-20T04:30:03.175Z,42.80
2023-11-20T04:30:37.055Z,43.00
2023-11-20T04:31:10.831Z,42.83
2023-11-20T04:31:44.487Z,44.13
2023-11-20T04:32:18.021Z,43.13
2023-11-20T04:32:52.645Z,41.67
2023-11-20T04:33:26.494Z,42.30
2023-11-20T04:34:00.888Z,42.87
2023-11-20T04:34:34.219Z,43.63
2023-11-20T04:35:08.617Z,42.80
2023-11-20T04:35:43.370Z,42.23
2023-11-20T04:36:17.643Z,42.43
2023-11-20T04:36:52.625Z,44.23
2023-11-20T04:37:26.239Z,44.03
2023-11-20T04:37:59.782Z,43.80
2023-11-20T04:38:34.032Z,43.13
2023-11-20T04:39:10.337Z,41.27
2023-11-20T04:39:44.127Z,41.20
2023-11-20T04:40:17.716Z,42.13
2023-11-20T04:40:51.777Z,41.90
2023-11-20T04:41:25.306Z,42.07
2023-11-20T04:41:59.941Z,44.30
2023-11-20T04:42:33.307Z,42.77
2023-11-20T04:43:09.339Z,43.93
2023-11-20T04:43:42.930Z,43.70
2023-11-20T04:44:16.571Z,44.20
2023-11-20T04:44:50.088Z,43.97
2023-11-20T04:45:24.452Z,41.93
2023-11-20T04:45:58.058Z,42.67
2023-11-20T04:46:31.609Z,43.53
2023-11-20T04:47:05.491Z,42.13
2023-11-20T04:47:39.324Z,43.30
2023-11-20T04:48:12.702Z,43.30
2023-11-20T04:48:46.312Z,42.37
2023-11-20T04:49:20.964Z,42.13
2023-11-20T04:49:54.493Z,43.50
2023-11-20T04:50:28.122Z,42.87
2023-11-20T04:51:01.682Z,44.90
2023-11-20T04:51:35.222Z,44.40
2023-11-20T04:52:08.627Z,44.10
2023-11-20T04:52:41.946Z,45.77
2023-11-20T04:53:15.197Z,45.83
2023-11-20T04:53:49.307Z,47.27
2023-11-20T04:54:22.611Z,47.87
2023-11-20T04:54:56.336Z,48.23
2023-11-20T04:55:29.910Z,48.43
2023-11-20T04:56:09.408Z,47.53
2023-11-20T04:56:46.501Z,48.93
2023-11-20T04:57:20.065Z,48.13
2023-11-20T04:57:54.707Z,46.50
2023-11-20T04:58:28.022Z,47.20
2023-11-20T04:59:01.440Z,47.70
2023-11-20T04:59:34.961Z,46.73
2023-11-20T05:00:09.712Z,48.27
2023-11-20T05:00:43.613Z,46.70
2023-11-20T05:01:17.403Z,47.47
2023-11-20T05:01:51.302Z,46.23
